Cathma — PJTL — position and weather

sailwx.info

Track history (hours):
 
Tides and Currents Weather Stations Pressure Air Temp Water Temp Dewpoint Dewpoint Depression Visibility Wind Speed Wind Dir Waves Ship Positions

Cathma

Last reported at 2014-Jul-29 10:20 UTC. Time now 2014-Jul-31 09:33 UTC.
Position N 55°34' E 020°29'.

Length 111 m; draft 4.4 m.

Type: Ship. MMSI: 306832000.

Date/timePositionNaut miles runAvg speedWind from/ knotsBaromVisibWave heightAir tempDewpointWater temp
2014-Jul-29 10:20N 55°34' E 020°29'2511.7
2014-Jul-29 08:12N 55°17' E 019°56'812.1
2014-Jul-29 07:33N 55°12' E 019°45'1211.5
2014-Jul-29 06:33N 55°02' E 019°35'1110.8
2014-Jul-29 05:33N 54°54' E 019°22'1110.9
2014-Jul-29 04:33N 54°46' E 019°09'1111.1
2014-Jul-29 03:33N 54°38' E 018°56'1111.1
2014-Jul-29 02:33N 54°29' E 018°45'7 6.6
2014-Jul-29 01:33N 54°23' E 018°40'0 0.0
2014-Jul-29 00:33N 54°23' E 018°40'0 0.0
2014-Jul-28 23:33N 54°23' E 018°40'0 0.0
2014-Jul-28 22:32N 54°23' E 018°40'0 0.0
2014-Jul-28 21:32N 54°23' E 018°40'0 0.0
2014-Jul-28 20:31N 54°23' E 018°40'0 0.0
2014-Jul-28 19:31N 54°23' E 018°40'0 0.0
2014-Jul-28 18:33N 54°23' E 018°40'0 0.0
2014-Jul-28 17:33N 54°23' E 018°40'0 0.0
2014-Jul-28 16:33N 54°23' E 018°40'0 0.0
2014-Jul-28 15:32N 54°23' E 018°40'0 0.0
2014-Jul-28 14:32N 54°23' E 018°40'0 0.0
2014-Jul-28 13:31N 54°23' E 018°40'0 0.0
2014-Jul-28 12:31N 54°23' E 018°40'0 0.0
2014-Jul-28 11:33N 54°23' E 018°40'0 0.0
2014-Jul-28 10:33N 54°23' E 018°40'0 0.0
2014-Jul-28 09:33N 54°23' E 018°40'0 0.0
2014-Jul-28 08:32N 54°23' E 018°40'2 2.2
2014-Jul-28 07:33N 54°25' E 018°39'3 2.7
2014-Jul-28 06:32N 54°28' E 018°41'0 0.0
2014-Jul-28 05:31N 54°28' E 018°41'0 0.0
2014-Jul-28 04:31N 54°28' E 018°41'0 0.0
2014-Jul-28 03:33N 54°28' E 018°41'0 0.0
2014-Jul-28 02:33N 54°28' E 018°41'0 0.0
2014-Jul-28 01:33N 54°28' E 018°41'0 0.0
2014-Jul-28 00:32N 54°28' E 018°41'0 0.0
2014-Jul-27 23:32N 54°28' E 018°41'0 0.0
2014-Jul-27 22:31N 54°28' E 018°41'0 0.0
2014-Jul-27 21:31N 54°28' E 018°41'0 0.0
2014-Jul-27 20:33N 54°28' E 018°41'0 0.0
2014-Jul-27 19:33N 54°28' E 018°41'0 0.0
2014-Jul-27 18:33N 54°28' E 018°41'0 0.0
2014-Jul-27 17:32N 54°28' E 018°41'0 0.0
2014-Jul-27 16:32N 54°28' E 018°41'0 0.0
2014-Jul-27 15:31N 54°28' E 018°41'0 0.0
2014-Jul-27 14:31N 54°28' E 018°41'0 0.0
2014-Jul-27 13:33N 54°28' E 018°41'0 0.0
2014-Jul-27 12:33N 54°28' E 018°41'0 0.0
2014-Jul-27 11:33N 54°28' E 018°41'0 0.0
2014-Jul-27 10:32N 54°28' E 018°41'0 0.0
2014-Jul-27 09:32N 54°28' E 018°41'0 0.0
2014-Jul-27 08:31N 54°28' E 018°41'0 0.0
2014-Jul-27 07:31N 54°28' E 018°41'0 0.0
2014-Jul-27 06:33N 54°28' E 018°41'0 0.0
2014-Jul-27 05:33N 54°28' E 018°41'0 0.0
2014-Jul-27 04:33N 54°28' E 018°41'0 0.0
2014-Jul-27 03:32N 54°28' E 018°41'0 0.0
2014-Jul-27 02:32N 54°28' E 018°41'0 0.0
2014-Jul-27 01:31N 54°28' E 018°41'0 0.0
2014-Jul-27 00:31N 54°28' E 018°41'0 0.0
2014-Jul-26 23:33N 54°28' E 018°41'0 0.0
2014-Jul-26 22:33N 54°28' E 018°41'0 0.0
2014-Jul-26 21:33N 54°28' E 018°41'0 0.0
2014-Jul-26 20:32N 54°28' E 018°41'0 0.0
2014-Jul-26 19:32N 54°28' E 018°41'0 0.0
2014-Jul-26 18:31N 54°28' E 018°41'0 0.0
2014-Jul-26 17:31N 54°28' E 018°41'0 0.0
2014-Jul-26 16:33N 54°28' E 018°41'0 0.0
2014-Jul-26 15:33N 54°28' E 018°41'0 0.0
2014-Jul-26 14:33N 54°28' E 018°41'0 0.0
2014-Jul-26 13:32N 54°28' E 018°41'0 0.0
2014-Jul-26 12:32N 54°28' E 018°41'0 0.0
2014-Jul-26 11:31N 54°28' E 018°41'0 0.0
2014-Jul-26 10:31N 54°28' E 018°41'0 0.0
2014-Jul-26 09:33N 54°28' E 018°41'0 0.0
2014-Jul-26 08:33N 54°28' E 018°41'5 5.4
2014-Jul-26 07:34N 54°32' E 018°47'1010.1
2014-Jul-26 06:33N 54°41' E 018°56'1110.7
2014-Jul-26 05:33N 54°47' E 018°40'8 8.5
2014-Jul-26 04:34N 54°52' E 018°28'8 8.2
2014-Jul-26 03:33N 54°55' E 018°15'9 9.0
2014-Jul-26 02:34N 54°54' E 017°60'9 8.9
2014-Jul-26 01:33N 54°54' E 017°44'9 9.0
2014-Jul-26 00:34N 54°53' E 017°28'9 9.0
2014-Jul-25 23:33N 54°52' E 017°13'36 8.9
2014-Jul-25 19:30N 54°45' E 016°12'36 8.8
2014-Jul-25 15:24N 54°38' E 015°10'7 8.5
2014-Jul-25 14:33N 54°37' E 014°58'8 8.4
2014-Jul-25 13:33N 54°35' E 014°44'8 8.3
2014-Jul-25 12:33N 54°34' E 014°30'8 8.3
2014-Jul-25 11:33N 54°32' E 014°16'9 8.7
2014-Jul-25 10:33N 54°30' E 014°01'9 8.5
2014-Jul-25 09:33N 54°27' E 013°47'4 3.8
2014-Jul-25 08:31N 54°26' E 013°41'0 0.0
2014-Jul-25 07:31N 54°26' E 013°41'0 0.0
2014-Jul-25 06:33N 54°26' E 013°41'0 0.0
2014-Jul-25 05:33N 54°26' E 013°41'0 0.0
2014-Jul-25 04:30N 54°26' E 013°41'0 0.0
2014-Jul-25 03:32N 54°26' E 013°41'0 0.0
2014-Jul-25 02:32N 54°26' E 013°41'0 0.0
2014-Jul-25 01:28N 54°26' E 013°41'0 0.0
2014-Jul-25 00:31N 54°26' E 013°41'0 0.0
2014-Jul-24 23:30N 54°26' E 013°41'0 0.0
2014-Jul-24 22:33N 54°26' E 013°41'0 0.0
2014-Jul-24 21:27N 54°26' E 013°41'0 0.0
2014-Jul-24 20:32N 54°26' E 013°41'0 0.0
2014-Jul-24 19:29N 54°26' E 013°41'0 0.0
2014-Jul-24 18:25N 54°26' E 013°41'0 0.0
2014-Jul-24 17:25N 54°26' E 013°41'0 0.0
2014-Jul-24 16:33N 54°26' E 013°41'0 0.0
2014-Jul-24 15:33N 54°26' E 013°41'0 0.0
2014-Jul-24 14:33N 54°26' E 013°41'0 0.0
2014-Jul-24 13:29N 54°26' E 013°41'0 0.0
2014-Jul-24 12:32N 54°26' E 013°41'0 0.0
2014-Jul-24 11:31N 54°26' E 013°41'0 0.0
2014-Jul-24 10:28N 54°26' E 013°41'0 0.0
2014-Jul-24 09:30N 54°26' E 013°41'0 0.0
2014-Jul-24 08:33N 54°26' E 013°41'0 0.0
2014-Jul-24 07:20N 54°26' E 013°41'0 0.0
2014-Jul-24 06:29N 54°26' E 013°41'0 0.0
2014-Jul-24 05:32N 54°26' E 013°41'0 0.0
2014-Jul-24 04:25N 54°26' E 013°41'0 0.0
2014-Jul-24 03:31N 54°26' E 013°41'0 0.0
2014-Jul-24 02:33N 54°26' E 013°41'0 0.0
2014-Jul-24 01:33N 54°26' E 013°41'0 0.0
2014-Jul-24 00:32N 54°26' E 013°41'0 0.0
2014-Jul-23 23:32N 54°26' E 013°41'0 0.0
2014-Jul-23 22:29N 54°26' E 013°41'0 0.0
2014-Jul-23 21:31N 54°26' E 013°41'0 0.0
2014-Jul-23 20:28N 54°26' E 013°41'0 0.0
2014-Jul-23 19:33N 54°26' E 013°41'0 0.0
2014-Jul-23 18:33N 54°26' E 013°41'0 0.0
2014-Jul-23 17:32N 54°26' E 013°41'0 0.0
2014-Jul-23 15:32N 54°26' E 013°41'0 0.0
2014-Jul-23 14:31N 54°26' E 013°41'0 0.0
2014-Jul-23 13:25N 54°26' E 013°41'0 0.0
2014-Jul-23 12:33N 54°26' E 013°41'0 0.0
2014-Jul-23 11:33N 54°26' E 013°41'0 0.0
2014-Jul-23 10:32N 54°26' E 013°41'0 0.0
2014-Jul-23 09:32N 54°26' E 013°41'0 0.0
2014-Jul-23 08:29N 54°26' E 013°41'0 0.0
2014-Jul-23 07:31N 54°26' E 013°41'0 0.0
2014-Jul-23 06:31N 54°26' E 013°41'0 0.0
2014-Jul-23 05:30N 54°26' E 013°41'0 0.0
2014-Jul-23 04:30N 54°26' E 013°41'0 0.0
2014-Jul-23 03:29N 54°26' E 013°41'0 0.0
2014-Jul-23 02:29N 54°26' E 013°41'0 0.0
2014-Jul-23 01:29N 54°26' E 013°41'0 0.0
2014-Jul-23 00:31N 54°26' E 013°41'0 0.0
2014-Jul-22 23:31N 54°26' E 013°41'0 0.0
2014-Jul-22 22:30N 54°26' E 013°41'0 0.0
2014-Jul-22 21:33N 54°26' E 013°41'0 0.0
2014-Jul-22 20:29N 54°26' E 013°41'0 0.0
2014-Jul-22 19:26N 54°26' E 013°41'0 0.0
2014-Jul-22 18:32N 54°26' E 013°41'0 0.0
2014-Jul-22 17:31N 54°26' E 013°41'0 0.0
2014-Jul-22 16:31N 54°26' E 013°41'0 0.0
2014-Jul-22 15:30N 54°26' E 013°41'0 0.0
2014-Jul-22 14:30N 54°26' E 013°41'0 0.0
2014-Jul-22 13:32N 54°26' E 013°41'0 0.0
2014-Jul-22 12:33N 54°26' E 013°41'5 4.7
2014-Jul-22 11:33N 54°29' E 013°35'0 0.0
2014-Jul-22 10:33N 54°29' E 013°35'0 0.0
2014-Jul-22 09:33N 54°29' E 013°35'0 0.0
2014-Jul-22 08:32N 54°29' E 013°35'0 0.0
2014-Jul-22 07:32N 54°29' E 013°35'0 0.0
2014-Jul-22 06:31N 54°29' E 013°35'0 0.0
2014-Jul-22 05:28N 54°29' E 013°35'0 0.0
2014-Jul-22 04:33N 54°29' E 013°35'0 0.0
2014-Jul-22 03:30N 54°29' E 013°35'0 0.0
2014-Jul-22 02:33N 54°29' E 013°35'0 0.0
2014-Jul-22 01:32N 54°29' E 013°35'0 0.0
2014-Jul-22 00:32N 54°29' E 013°35'0 0.0
2014-Jul-21 23:31N 54°29' E 013°35'0 0.0
2014-Jul-21 22:28N 54°29' E 013°35'0 0.0
2014-Jul-21 21:33N 54°29' E 013°35'0 0.0
2014-Jul-21 20:33N 54°29' E 013°35'0 0.0
2014-Jul-21 20:18N 54°29' E 013°35'0 0.0
2014-Jul-21 19:30N 54°29' E 013°35'0 0.0
2014-Jul-21 18:32N 54°29' E 013°35'0 0.0
2014-Jul-21 17:32N 54°29' E 013°35'0 0.0
2014-Jul-21 16:31N 54°29' E 013°35'0 0.0
2014-Jul-21 15:31N 54°29' E 013°35'0 0.0
2014-Jul-21 14:33N 54°29' E 013°35'0 0.0
2014-Jul-21 13:33N 54°29' E 013°35'0 0.0
2014-Jul-21 12:33N 54°29' E 013°35'0 0.0
2014-Jul-21 11:32N 54°29' E 013°35'0 0.0
2014-Jul-21 10:26N 54°29' E 013°35'0 0.0
2014-Jul-21 09:31N 54°29' E 013°35'0 0.0
2014-Jul-21 08:28N 54°29' E 013°35'0 0.0
2014-Jul-21 07:29N 54°29' E 013°35'0 0.0
2014-Jul-21 06:33N 54°29' E 013°35'0 0.0
2014-Jul-21 05:33N 54°29' E 013°35'0 0.0
2014-Jul-21 04:32N 54°29' E 013°35'0 0.0
2014-Jul-21 03:32N 54°29' E 013°35'0 0.0
2014-Jul-21 02:31N 54°29' E 013°35'0 0.0
2014-Jul-21 01:31N 54°29' E 013°35'0 0.0
2014-Jul-21 00:33N 54°29' E 013°35'0 0.0
2014-Jul-20 23:33N 54°29' E 013°35'0 0.0
2014-Jul-20 22:32N 54°29' E 013°35'0 0.0
2014-Jul-20 21:32N 54°29' E 013°35'0 0.0
2014-Jul-20 20:32N 54°29' E 013°35'0 0.1
2014-Jul-20 19:33N 54°29' E 013°35'6 5.7
2014-Jul-20 18:33N 54°32' E 013°44'9 9.2
2014-Jul-20 17:33N 54°39' E 013°35'9 9.3
2014-Jul-20 16:34N 54°43' E 013°21'1010.3
2014-Jul-20 15:33N 54°42' E 013°02'1010.6
2014-Jul-20 14:33N 54°40' E 012°45'1010.4
2014-Jul-20 13:34N 54°35' E 012°29'10 9.9
2014-Jul-20 12:34N 54°29' E 012°15'9 9.4
2014-Jul-20 11:33N 54°24' E 012°01'1010.3
2014-Jul-20 10:34N 54°25' E 011°44'1110.5
2014-Jul-20 09:34N 54°30' E 011°28'10 9.8
2014-Jul-20 08:34N 54°34' E 011°13'1110.4
2014-Jul-20 07:28N 54°34' E 010°53'1011.0
2014-Jul-20 06:33N 54°33' E 010°36'1111.4
2014-Jul-20 05:33N 54°29' E 010°18'9 7.9
2014-Jul-20 04:25N 54°22' E 010°09'1 0.8
2014-Jul-20 03:33N 54°22' E 010°07'14 6.7
2014-Jul-20 01:32N 54°20' E 009°44'7 7.6
2014-Jul-20 00:33N 54°14' E 009°37'9 8.2
2014-Jul-19 23:30N 54°10' E 009°24'6 6.8
2014-Jul-19 22:32N 54°04' E 009°19'6 5.6
2014-Jul-19 21:29N 53°58' E 009°16'6 5.8
2014-Jul-19 20:24N 53°54' E 009°09'2 2.0
2014-Jul-19 19:33N 53°53' E 009°06'6 5.6
2014-Jul-19 18:34N 53°51' E 008°57'1211.6
2014-Jul-19 17:34N 53°56' E 008°40'1212.2
2014-Jul-19 16:33N 53°59' E 008°20'1411.5
2014-Jul-19 15:23N 53°57' E 007°57'  
Track history (hours):
 
Tides and Currents Weather Stations Pressure Air Temp Water Temp Dewpoint Dewpoint Depression Visibility Wind Speed Wind Dir Waves Ship Positions

Cathma

Last reported at 2014-Jul-29 10:20 UTC. Time now 2014-Jul-31 09:33 UTC.
Position N 55°34' E 020°29'.

Length 111 m; draft 4.4 m.

Type: Ship. MMSI: 306832000.

Date/timePositionNaut miles runAvg speedWind from/ knotsBaromVisibWave heightAir tempDewpointWater temp
2014-Jul-29 10:20N 55°34' E 020°29'2511.7
2014-Jul-29 08:12N 55°17' E 019°56'812.1
2014-Jul-29 07:33N 55°12' E 019°45'1211.5
2014-Jul-29 06:33N 55°02' E 019°35'1110.8
2014-Jul-29 05:33N 54°54' E 019°22'1110.9
2014-Jul-29 04:33N 54°46' E 019°09'1111.1
2014-Jul-29 03:33N 54°38' E 018°56'1111.1
2014-Jul-29 02:33N 54°29' E 018°45'7 6.6
2014-Jul-29 01:33N 54°23' E 018°40'0 0.0
2014-Jul-29 00:33N 54°23' E 018°40'0 0.0
2014-Jul-28 23:33N 54°23' E 018°40'0 0.0
2014-Jul-28 22:32N 54°23' E 018°40'0 0.0
2014-Jul-28 21:32N 54°23' E 018°40'0 0.0
2014-Jul-28 20:31N 54°23' E 018°40'0 0.0
2014-Jul-28 19:31N 54°23' E 018°40'0 0.0
2014-Jul-28 18:33N 54°23' E 018°40'0 0.0
2014-Jul-28 17:33N 54°23' E 018°40'0 0.0
2014-Jul-28 16:33N 54°23' E 018°40'0 0.0
2014-Jul-28 15:32N 54°23' E 018°40'0 0.0
2014-Jul-28 14:32N 54°23' E 018°40'0 0.0
2014-Jul-28 13:31N 54°23' E 018°40'0 0.0
2014-Jul-28 12:31N 54°23' E 018°40'0 0.0
2014-Jul-28 11:33N 54°23' E 018°40'0 0.0
2014-Jul-28 10:33N 54°23' E 018°40'0 0.0
2014-Jul-28 09:33N 54°23' E 018°40'0 0.0
2014-Jul-28 08:32N 54°23' E 018°40'2 2.2
2014-Jul-28 07:33N 54°25' E 018°39'3 2.7
2014-Jul-28 06:32N 54°28' E 018°41'0 0.0
2014-Jul-28 05:31N 54°28' E 018°41'0 0.0
2014-Jul-28 04:31N 54°28' E 018°41'0 0.0
2014-Jul-28 03:33N 54°28' E 018°41'0 0.0
2014-Jul-28 02:33N 54°28' E 018°41'0 0.0
2014-Jul-28 01:33N 54°28' E 018°41'0 0.0
2014-Jul-28 00:32N 54°28' E 018°41'0 0.0
2014-Jul-27 23:32N 54°28' E 018°41'0 0.0
2014-Jul-27 22:31N 54°28' E 018°41'0 0.0
2014-Jul-27 21:31N 54°28' E 018°41'0 0.0
2014-Jul-27 20:33N 54°28' E 018°41'0 0.0
2014-Jul-27 19:33N 54°28' E 018°41'0 0.0
2014-Jul-27 18:33N 54°28' E 018°41'0 0.0
2014-Jul-27 17:32N 54°28' E 018°41'0 0.0
2014-Jul-27 16:32N 54°28' E 018°41'0 0.0
2014-Jul-27 15:31N 54°28' E 018°41'0 0.0
2014-Jul-27 14:31N 54°28' E 018°41'0 0.0
2014-Jul-27 13:33N 54°28' E 018°41'0 0.0
2014-Jul-27 12:33N 54°28' E 018°41'0 0.0
2014-Jul-27 11:33N 54°28' E 018°41'0 0.0
2014-Jul-27 10:32N 54°28' E 018°41'0 0.0
2014-Jul-27 09:32N 54°28' E 018°41'0 0.0
2014-Jul-27 08:31N 54°28' E 018°41'0 0.0
2014-Jul-27 07:31N 54°28' E 018°41'0 0.0
2014-Jul-27 06:33N 54°28' E 018°41'0 0.0
2014-Jul-27 05:33N 54°28' E 018°41'0 0.0
2014-Jul-27 04:33N 54°28' E 018°41'0 0.0
2014-Jul-27 03:32N 54°28' E 018°41'0 0.0
2014-Jul-27 02:32N 54°28' E 018°41'0 0.0
2014-Jul-27 01:31N 54°28' E 018°41'0 0.0
2014-Jul-27 00:31N 54°28' E 018°41'0 0.0
2014-Jul-26 23:33N 54°28' E 018°41'0 0.0
2014-Jul-26 22:33N 54°28' E 018°41'0 0.0
2014-Jul-26 21:33N 54°28' E 018°41'0 0.0
2014-Jul-26 20:32N 54°28' E 018°41'0 0.0
2014-Jul-26 19:32N 54°28' E 018°41'0 0.0
2014-Jul-26 18:31N 54°28' E 018°41'0 0.0
2014-Jul-26 17:31N 54°28' E 018°41'0 0.0
2014-Jul-26 16:33N 54°28' E 018°41'0 0.0
2014-Jul-26 15:33N 54°28' E 018°41'0 0.0
2014-Jul-26 14:33N 54°28' E 018°41'0 0.0
2014-Jul-26 13:32N 54°28' E 018°41'0 0.0
2014-Jul-26 12:32N 54°28' E 018°41'0 0.0
2014-Jul-26 11:31N 54°28' E 018°41'0 0.0
2014-Jul-26 10:31N 54°28' E 018°41'0 0.0
2014-Jul-26 09:33N 54°28' E 018°41'0 0.0
2014-Jul-26 08:33N 54°28' E 018°41'5 5.4
2014-Jul-26 07:34N 54°32' E 018°47'1010.1
2014-Jul-26 06:33N 54°41' E 018°56'1110.7
2014-Jul-26 05:33N 54°47' E 018°40'8 8.5
2014-Jul-26 04:34N 54°52' E 018°28'8 8.2
2014-Jul-26 03:33N 54°55' E 018°15'9 9.0
2014-Jul-26 02:34N 54°54' E 017°60'9 8.9
2014-Jul-26 01:33N 54°54' E 017°44'9 9.0
2014-Jul-26 00:34N 54°53' E 017°28'9 9.0
2014-Jul-25 23:33N 54°52' E 017°13'36 8.9
2014-Jul-25 19:30N 54°45' E 016°12'36 8.8
2014-Jul-25 15:24N 54°38' E 015°10'7 8.5
2014-Jul-25 14:33N 54°37' E 014°58'8 8.4
2014-Jul-25 13:33N 54°35' E 014°44'8 8.3
2014-Jul-25 12:33N 54°34' E 014°30'8 8.3
2014-Jul-25 11:33N 54°32' E 014°16'9 8.7
2014-Jul-25 10:33N 54°30' E 014°01'9 8.5
2014-Jul-25 09:33N 54°27' E 013°47'4 3.8
2014-Jul-25 08:31N 54°26' E 013°41'0 0.0
2014-Jul-25 07:31N 54°26' E 013°41'0 0.0
2014-Jul-25 06:33N 54°26' E 013°41'0 0.0
2014-Jul-25 05:33N 54°26' E 013°41'0 0.0
2014-Jul-25 04:30N 54°26' E 013°41'0 0.0
2014-Jul-25 03:32N 54°26' E 013°41'0 0.0
2014-Jul-25 02:32N 54°26' E 013°41'0 0.0
2014-Jul-25 01:28N 54°26' E 013°41'0 0.0
2014-Jul-25 00:31N 54°26' E 013°41'0 0.0
2014-Jul-24 23:30N 54°26' E 013°41'0 0.0
2014-Jul-24 22:33N 54°26' E 013°41'0 0.0
2014-Jul-24 21:27N 54°26' E 013°41'0 0.0
2014-Jul-24 20:32N 54°26' E 013°41'0 0.0
2014-Jul-24 19:29N 54°26' E 013°41'0 0.0
2014-Jul-24 18:25N 54°26' E 013°41'0 0.0
2014-Jul-24 17:25N 54°26' E 013°41'0 0.0
2014-Jul-24 16:33N 54°26' E 013°41'0 0.0
2014-Jul-24 15:33N 54°26' E 013°41'0 0.0
2014-Jul-24 14:33N 54°26' E 013°41'0 0.0
2014-Jul-24 13:29N 54°26' E 013°41'0 0.0
2014-Jul-24 12:32N 54°26' E 013°41'0 0.0
2014-Jul-24 11:31N 54°26' E 013°41'0 0.0
2014-Jul-24 10:28N 54°26' E 013°41'0 0.0
2014-Jul-24 09:30N 54°26' E 013°41'0 0.0
2014-Jul-24 08:33N 54°26' E 013°41'0 0.0
2014-Jul-24 07:20N 54°26' E 013°41'0 0.0
2014-Jul-24 06:29N 54°26' E 013°41'0 0.0
2014-Jul-24 05:32N 54°26' E 013°41'0 0.0
2014-Jul-24 04:25N 54°26' E 013°41'0 0.0
2014-Jul-24 03:31N 54°26' E 013°41'0 0.0
2014-Jul-24 02:33N 54°26' E 013°41'0 0.0
2014-Jul-24 01:33N 54°26' E 013°41'0 0.0
2014-Jul-24 00:32N 54°26' E 013°41'0 0.0
2014-Jul-23 23:32N 54°26' E 013°41'0 0.0
2014-Jul-23 22:29N 54°26' E 013°41'0 0.0
2014-Jul-23 21:31N 54°26' E 013°41'0 0.0
2014-Jul-23 20:28N 54°26' E 013°41'0 0.0
2014-Jul-23 19:33N 54°26' E 013°41'0 0.0
2014-Jul-23 18:33N 54°26' E 013°41'0 0.0
2014-Jul-23 17:32N 54°26' E 013°41'0 0.0
2014-Jul-23 15:32N 54°26' E 013°41'0 0.0
2014-Jul-23 14:31N 54°26' E 013°41'0 0.0
2014-Jul-23 13:25N 54°26' E 013°41'0 0.0
2014-Jul-23 12:33N 54°26' E 013°41'0 0.0
2014-Jul-23 11:33N 54°26' E 013°41'0 0.0
2014-Jul-23 10:32N 54°26' E 013°41'0 0.0
2014-Jul-23 09:32N 54°26' E 013°41'0 0.0
2014-Jul-23 08:29N 54°26' E 013°41'0 0.0
2014-Jul-23 07:31N 54°26' E 013°41'0 0.0
2014-Jul-23 06:31N 54°26' E 013°41'0 0.0
2014-Jul-23 05:30N 54°26' E 013°41'0 0.0
2014-Jul-23 04:30N 54°26' E 013°41'0 0.0
2014-Jul-23 03:29N 54°26' E 013°41'0 0.0
2014-Jul-23 02:29N 54°26' E 013°41'0 0.0
2014-Jul-23 01:29N 54°26' E 013°41'0 0.0
2014-Jul-23 00:31N 54°26' E 013°41'0 0.0
2014-Jul-22 23:31N 54°26' E 013°41'0 0.0
2014-Jul-22 22:30N 54°26' E 013°41'0 0.0
2014-Jul-22 21:33N 54°26' E 013°41'0 0.0
2014-Jul-22 20:29N 54°26' E 013°41'0 0.0
2014-Jul-22 19:26N 54°26' E 013°41'0 0.0
2014-Jul-22 18:32N 54°26' E 013°41'0 0.0
2014-Jul-22 17:31N 54°26' E 013°41'0 0.0
2014-Jul-22 16:31N 54°26' E 013°41'0 0.0
2014-Jul-22 15:30N 54°26' E 013°41'0 0.0
2014-Jul-22 14:30N 54°26' E 013°41'0 0.0
2014-Jul-22 13:32N 54°26' E 013°41'0 0.0
2014-Jul-22 12:33N 54°26' E 013°41'5 4.7
2014-Jul-22 11:33N 54°29' E 013°35'0 0.0
2014-Jul-22 10:33N 54°29' E 013°35'0 0.0
2014-Jul-22 09:33N 54°29' E 013°35'0 0.0
2014-Jul-22 08:32N 54°29' E 013°35'0 0.0
2014-Jul-22 07:32N 54°29' E 013°35'0 0.0
2014-Jul-22 06:31N 54°29' E 013°35'0 0.0
2014-Jul-22 05:28N 54°29' E 013°35'0 0.0
2014-Jul-22 04:33N 54°29' E 013°35'0 0.0
2014-Jul-22 03:30N 54°29' E 013°35'0 0.0
2014-Jul-22 02:33N 54°29' E 013°35'0 0.0
2014-Jul-22 01:32N 54°29' E 013°35'0 0.0
2014-Jul-22 00:32N 54°29' E 013°35'0 0.0
2014-Jul-21 23:31N 54°29' E 013°35'0 0.0
2014-Jul-21 22:28N 54°29' E 013°35'0 0.0
2014-Jul-21 21:33N 54°29' E 013°35'0 0.0
2014-Jul-21 20:33N 54°29' E 013°35'0 0.0
2014-Jul-21 20:18N 54°29' E 013°35'0 0.0
2014-Jul-21 19:30N 54°29' E 013°35'0 0.0
2014-Jul-21 18:32N 54°29' E 013°35'0 0.0
2014-Jul-21 17:32N 54°29' E 013°35'0 0.0
2014-Jul-21 16:31N 54°29' E 013°35'0 0.0
2014-Jul-21 15:31N 54°29' E 013°35'0 0.0
2014-Jul-21 14:33N 54°29' E 013°35'0 0.0
2014-Jul-21 13:33N 54°29' E 013°35'0 0.0
2014-Jul-21 12:33N 54°29' E 013°35'0 0.0
2014-Jul-21 11:32N 54°29' E 013°35'0 0.0
2014-Jul-21 10:26N 54°29' E 013°35'0 0.0
2014-Jul-21 09:31N 54°29' E 013°35'0 0.0
2014-Jul-21 08:28N 54°29' E 013°35'0 0.0
2014-Jul-21 07:29N 54°29' E 013°35'0 0.0
2014-Jul-21 06:33N 54°29' E 013°35'0 0.0
2014-Jul-21 05:33N 54°29' E 013°35'0 0.0
2014-Jul-21 04:32N 54°29' E 013°35'0 0.0
2014-Jul-21 03:32N 54°29' E 013°35'0 0.0
2014-Jul-21 02:31N 54°29' E 013°35'0 0.0
2014-Jul-21 01:31N 54°29' E 013°35'0 0.0
2014-Jul-21 00:33N 54°29' E 013°35'0 0.0
2014-Jul-20 23:33N 54°29' E 013°35'0 0.0
2014-Jul-20 22:32N 54°29' E 013°35'0 0.0
2014-Jul-20 21:32N 54°29' E 013°35'0 0.0
2014-Jul-20 20:32N 54°29' E 013°35'0 0.1
2014-Jul-20 19:33N 54°29' E 013°35'6 5.7
2014-Jul-20 18:33N 54°32' E 013°44'9 9.2
2014-Jul-20 17:33N 54°39' E 013°35'9 9.3
2014-Jul-20 16:34N 54°43' E 013°21'1010.3
2014-Jul-20 15:33N 54°42' E 013°02'1010.6
2014-Jul-20 14:33N 54°40' E 012°45'1010.4
2014-Jul-20 13:34N 54°35' E 012°29'10 9.9
2014-Jul-20 12:34N 54°29' E 012°15'9 9.4
2014-Jul-20 11:33N 54°24' E 012°01'1010.3
2014-Jul-20 10:34N 54°25' E 011°44'1110.5
2014-Jul-20 09:34N 54°30' E 011°28'10 9.8
2014-Jul-20 08:34N 54°34' E 011°13'1110.4
2014-Jul-20 07:28N 54°34' E 010°53'1011.0
2014-Jul-20 06:33N 54°33' E 010°36'1111.4
2014-Jul-20 05:33N 54°29' E 010°18'9 7.9
2014-Jul-20 04:25N 54°22' E 010°09'1 0.8
2014-Jul-20 03:33N 54°22' E 010°07'14 6.7
2014-Jul-20 01:32N 54°20' E 009°44'7 7.6
2014-Jul-20 00:33N 54°14' E 009°37'9 8.2
2014-Jul-19 23:30N 54°10' E 009°24'6 6.8
2014-Jul-19 22:32N 54°04' E 009°19'6 5.6
2014-Jul-19 21:29N 53°58' E 009°16'6 5.8
2014-Jul-19 20:24N 53°54' E 009°09'2 2.0
2014-Jul-19 19:33N 53°53' E 009°06'6 5.6
2014-Jul-19 18:34N 53°51' E 008°57'1211.6
2014-Jul-19 17:34N 53°56' E 008°40'1212.2
2014-Jul-19 16:33N 53°59' E 008°20'1411.5
2014-Jul-19 15:23N 53°57' E 007°57'  

Dump ship's entire track history